Covesville, Virginia
Current Conditions -  °F | °C
As of 8:55 PM on Monday 20 Oct 2014 (Local Time) from KW13 Reporting Station
Overcast Overcast  
Wind Chill: 57°   Ceiling: 9000
Heat Index: 57°   Visibility: 10mi
Dew Point: 48°   Wind: 5mph
Humidity: 70%   Direction: 200°SSW
Pressure: 29.95"   Gusts: NA
Location:  37.89°N, 78.7°W
Report Text: KW13 210055Z AUTO 20004KT 10SM SCT070 OVC090 14/09 A2995 RMK AO1 T01410087
Loading
Personal Weather Stations






























Interactive Weather Map
Tropical Storm Tracking
New forecast layout! Learn more

10-Day Weather Forecast

Advertisements
Track Severe Weather on mobile